Time;durP1;ratioP1;P1;durP2;ratioP2;P2;SDS_P1;SDS_P2;PMS_P1;PMS_P2;Temp;Humidity;BMP_temperature;BMP_pressure;BME280_temperature;BME280_humidity;BME280_pressure;Samples;Min_cycle;Max_cycle;Signal;HPM_P1;HPM_P2
2023/09/04 00:01:55;;;;;;;19.05;6.10;;;;;;;;;;4946356;28;20236;-67
2023/09/04 00:04:21;;;;;;;20.38;5.40;;;;;;;;;;4938379;28;20035;-67
2023/09/04 00:06:48;;;;;;;22.38;6.30;;;;;;;;;;4941459;28;20034;-67
2023/09/04 00:09:15;;;;;;;20.05;6.45;;;;;;;;;;4940980;28;20093;-67
2023/09/04 00:11:41;;;;;;;21.13;6.65;;;;;;;;;;4946909;28;20053;-67
2023/09/04 00:14:07;;;;;;;18.88;5.57;;;;;;;;;;4938462;28;20070;-67
2023/09/04 00:16:33;;;;;;;20.17;5.68;;;;;;;;;;4945963;28;20066;-67
2023/09/04 00:18:59;;;;;;;20.67;5.40;;;;;;;;;;4947386;28;20022;-67
2023/09/04 00:21:26;;;;;;;21.67;5.65;;;;;;;;;;4944150;28;20041;-67
2023/09/04 00:23:52;;;;;;;19.10;5.15;;;;;;;;;;4946780;28;20493;-67
2023/09/04 00:26:18;;;;;;;21.50;6.00;;;;;;;;;;4944103;28;20340;-67
2023/09/04 00:28:45;;;;;;;20.73;4.88;;;;;;;;;;4947837;28;20030;-67
2023/09/04 00:31:11;;;;;;;20.58;5.32;;;;;;;;;;4943326;28;20535;-67
2023/09/04 00:33:37;;;;;;;22.83;5.53;;;;;;;;;;4944835;28;20058;-67
2023/09/04 00:36:04;;;;;;;18.55;5.22;;;;;;;;;;4946187;28;20029;-67
2023/09/04 00:38:30;;;;;;;19.48;5.28;;;;;;;;;;4945354;28;20927;-67
2023/09/04 00:40:56;;;;;;;21.33;5.72;;;;;;;;;;4946760;28;20162;-67
2023/09/04 00:43:22;;;;;;;20.73;5.60;;;;;;;;;;4944687;28;20332;-67
2023/09/04 00:45:48;;;;;;;22.75;5.45;;;;;;;;;;4945911;28;20120;-67
2023/09/04 00:48:15;;;;;;;18.83;5.30;;;;;;;;;;4944067;28;20037;-67
2023/09/04 00:50:43;;;;;;;24.27;5.93;;;;;;;;;;4945486;28;20039;-67
2023/09/04 00:53:10;;;;;;;24.40;6.35;;;;;;;;;;4942620;28;20626;-66
2023/09/04 00:55:36;;;;;;;18.60;5.10;;;;;;;;;;4947919;28;20311;-66
2023/09/04 00:58:03;;;;;;;20.30;4.68;;;;;;;;;;4947249;28;20058;-66
2023/09/04 01:00:29;;;;;;;18.50;5.32;;;;;;;;;;4947499;28;20301;-69
2023/09/04 01:02:58;;;;;;;19.85;5.28;;;;;;;;;;4949845;28;20062;-66
2023/09/04 01:05:27;;;;;;;22.23;5.47;;;;;;;;;;4946112;28;20038;-67
2023/09/04 01:07:54;;;;;;;21.83;5.70;;;;;;;;;;4946737;28;20031;-66
2023/09/04 01:10:21;;;;;;;23.00;5.40;;;;;;;;;;4943057;28;20302;-66
2023/09/04 01:13:13;;;;;;;23.48;5.47;;;;;;;;;;4947187;28;20039;-66
2023/09/04 01:15:40;;;;;;;21.63;6.15;;;;;;;;;;4929837;28;20453;-67
2023/09/04 01:18:06;;;;;;;23.42;5.70;;;;;;;;;;4949163;28;20019;-66
2023/09/04 01:20:33;;;;;;;17.80;4.95;;;;;;;;;;4948856;28;20296;-67
2023/09/04 01:23:00;;;;;;;22.33;5.88;;;;;;;;;;4949720;28;20031;-66
2023/09/04 01:25:38;;;;;;;24.77;6.18;;;;;;;;;;4945562;28;20035;-66
2023/09/04 01:28:23;;;;;;;23.58;6.15;;;;;;;;;;4943511;28;20031;-67
2023/09/04 01:31:03;;;;;;;21.10;5.85;;;;;;;;;;4946784;28;20058;-66
2023/09/04 01:33:35;;;;;;;27.90;6.45;;;;;;;;;;4946845;28;20117;-66
2023/09/04 01:36:04;;;;;;;25.67;6.03;;;;;;;;;;4942286;28;20089;-67
2023/09/04 01:38:31;;;;;;;22.77;5.60;;;;;;;;;;4949580;28;20374;-67
2023/09/04 01:40:57;;;;;;;20.95;5.78;;;;;;;;;;4946075;28;20055;-66
2023/09/04 01:43:24;;;;;;;21.05;5.32;;;;;;;;;;4938251;28;20039;-66
2023/09/04 01:45:50;;;;;;;21.40;5.68;;;;;;;;;;4945595;28;20464;-67
2023/09/04 01:48:16;;;;;;;19.35;5.70;;;;;;;;;;4946983;28;20037;-66
2023/09/04 01:50:42;;;;;;;23.50;5.95;;;;;;;;;;4953769;28;20130;-67
2023/09/04 01:53:08;;;;;;;24.77;6.00;;;;;;;;;;4946440;28;20031;-66
2023/09/04 01:55:36;;;;;;;22.48;5.60;;;;;;;;;;4945428;28;20031;-66
2023/09/04 01:58:02;;;;;;;24.63;6.25;;;;;;;;;;4941481;28;20023;-67
2023/09/04 02:00:28;;;;;;;21.35;5.88;;;;;;;;;;4942700;28;20043;-67
2023/09/04 02:02:54;;;;;;;20.05;5.43;;;;;;;;;;4945516;28;20328;-66
2023/09/04 02:05:20;;;;;;;29.50;5.78;;;;;;;;;;4944576;28;20631;-66
2023/09/04 02:07:46;;;;;;;25.38;5.85;;;;;;;;;;4946258;28;20039;-67
2023/09/04 02:10:12;;;;;;;24.95;5.85;;;;;;;;;;4943605;28;20385;-67
2023/09/04 02:12:39;;;;;;;20.63;5.22;;;;;;;;;;4943678;28;20067;-66
2023/09/04 02:15:05;;;;;;;24.52;5.80;;;;;;;;;;4943097;28;20039;-67
2023/09/04 02:17:31;;;;;;;19.98;5.55;;;;;;;;;;4947452;28;20030;-66
2023/09/04 02:19:58;;;;;;;24.80;5.90;;;;;;;;;;4944951;28;20042;-67
2023/09/04 02:22:24;;;;;;;22.38;5.53;;;;;;;;;;4946959;28;20118;-66
2023/09/04 02:24:51;;;;;;;24.63;5.95;;;;;;;;;;4941790;28;20134;-67
2023/09/04 02:27:17;;;;;;;22.83;5.97;;;;;;;;;;4941965;28;20428;-66
2023/09/04 02:29:43;;;;;;;21.70;5.80;;;;;;;;;;4948587;28;20384;-66
2023/09/04 02:32:09;;;;;;;19.95;5.50;;;;;;;;;;4944559;28;20037;-66
2023/09/04 02:34:35;;;;;;;23.30;5.63;;;;;;;;;;4950384;28;20441;-66
2023/09/04 02:37:02;;;;;;;20.30;5.05;;;;;;;;;;4943217;28;20032;-66
2023/09/04 02:39:28;;;;;;;19.58;5.50;;;;;;;;;;4943854;28;20489;-66
2023/09/04 02:41:54;;;;;;;25.75;5.90;;;;;;;;;;4942155;28;20148;-66
2023/09/04 02:44:20;;;;;;;24.83;5.60;;;;;;;;;;4940561;28;20043;-66
2023/09/04 02:46:46;;;;;;;24.77;6.20;;;;;;;;;;4942150;28;20035;-66
2023/09/04 02:49:12;;;;;;;22.13;5.88;;;;;;;;;;4943437;28;20086;-66
2023/09/04 02:51:39;;;;;;;22.15;6.05;;;;;;;;;;4948605;28;20045;-66
2023/09/04 02:54:05;;;;;;;24.35;6.10;;;;;;;;;;4945231;28;20765;-66
2023/09/04 02:56:31;;;;;;;22.55;6.07;;;;;;;;;;4948189;28;20042;-66
2023/09/04 02:58:57;;;;;;;25.95;6.15;;;;;;;;;;4939120;28;21214;-66
2023/09/04 03:01:23;;;;;;;25.17;6.93;;;;;;;;;;4937894;28;20163;-66
2023/09/04 03:03:49;;;;;;;24.77;6.13;;;;;;;;;;4945366;28;20028;-66
2023/09/04 03:06:15;;;;;;;24.10;5.88;;;;;;;;;;4944805;28;20180;-66
2023/09/04 03:08:41;;;;;;;23.63;6.18;;;;;;;;;;4941104;28;20053;-66
2023/09/04 03:11:10;;;;;;;28.02;6.40;;;;;;;;;;4941921;28;20137;-67
2023/09/04 03:13:36;;;;;;;29.38;6.57;;;;;;;;;;4945960;28;20031;-66
2023/09/04 03:16:04;;;;;;;24.30;5.63;;;;;;;;;;4944056;28;20027;-66
2023/09/04 03:18:30;;;;;;;26.27;6.88;;;;;;;;;;4944554;28;20030;-65
2023/09/04 03:20:56;;;;;;;26.38;6.20;;;;;;;;;;4944941;28;20117;-66
2023/09/04 03:23:22;;;;;;;23.85;6.32;;;;;;;;;;4942070;28;20030;-66
2023/09/04 03:25:48;;;;;;;27.67;7.03;;;;;;;;;;4944139;28;20035;-66
2023/09/04 03:28:14;;;;;;;24.73;6.57;;;;;;;;;;4940020;28;20421;-66
2023/09/04 03:30:41;;;;;;;25.38;6.10;;;;;;;;;;4938757;28;20069;-66
2023/09/04 03:33:07;;;;;;;23.80;5.80;;;;;;;;;;4937232;28;20042;-66
2023/09/04 03:35:33;;;;;;;24.55;5.75;;;;;;;;;;4945684;28;20312;-66
2023/09/04 03:38:00;;;;;;;21.58;5.90;;;;;;;;;;4943263;28;20031;-67
2023/09/04 03:40:29;;;;;;;23.10;5.95;;;;;;;;;;4943195;28;20066;-66
2023/09/04 03:42:55;;;;;;;23.75;6.28;;;;;;;;;;4944225;28;20097;-66
2023/09/04 03:45:22;;;;;;;22.88;6.07;;;;;;;;;;4939039;28;20098;-66
2023/09/04 03:47:48;;;;;;;27.05;6.32;;;;;;;;;;4939940;28;20157;-66
2023/09/04 03:50:15;;;;;;;23.10;6.10;;;;;;;;;;4939540;28;20094;-66
2023/09/04 03:52:41;;;;;;;22.25;5.70;;;;;;;;;;4941376;28;20760;-66
2023/09/04 03:55:08;;;;;;;23.33;6.30;;;;;;;;;;4940000;28;20038;-66
2023/09/04 03:57:39;;;;;;;31.02;6.82;;;;;;;;;;4944718;28;20041;-66
2023/09/04 04:00:14;;;;;;;27.75;6.22;;;;;;;;;;4946445;28;20548;-66
2023/09/04 04:02:40;;;;;;;27.42;6.78;;;;;;;;;;4947756;28;20031;-66
2023/09/04 04:05:06;;;;;;;22.98;5.93;;;;;;;;;;4950018;28;20062;-66
2023/09/04 04:07:33;;;;;;;21.92;5.85;;;;;;;;;;4949158;28;20030;-66
2023/09/04 04:09:59;;;;;;;23.80;6.40;;;;;;;;;;4945776;28;20062;-66
2023/09/04 04:12:25;;;;;;;24.77;5.53;;;;;;;;;;4944781;28;20042;-65
2023/09/04 04:14:56;;;;;;;20.83;5.65;;;;;;;;;;4949619;28;20035;-66
2023/09/04 04:17:23;;;;;;;24.42;6.20;;;;;;;;;;4944048;28;20030;-66
2023/09/04 04:19:50;;;;;;;21.40;6.18;;;;;;;;;;4947817;28;20039;-67
2023/09/04 04:22:17;;;;;;;21.48;5.57;;;;;;;;;;4942501;28;20111;-66
2023/09/04 04:24:43;;;;;;;24.52;6.38;;;;;;;;;;4946934;28;20028;-66
2023/09/04 04:27:09;;;;;;;23.48;5.80;;;;;;;;;;4944052;28;20440;-66
2023/09/04 04:29:35;;;;;;;21.77;5.35;;;;;;;;;;4949360;28;20145;-66
2023/09/04 04:32:02;;;;;;;24.85;6.18;;;;;;;;;;4946807;28;20094;-66
2023/09/04 04:34:28;;;;;;;21.25;6.05;;;;;;;;;;4953116;28;20110;-66
2023/09/04 04:36:56;;;;;;;20.92;5.80;;;;;;;;;;4952377;28;20065;-66
2023/09/04 04:39:22;;;;;;;24.63;6.72;;;;;;;;;;4942941;28;20137;-65
2023/09/04 04:41:48;;;;;;;22.75;5.93;;;;;;;;;;4945551;28;20354;-68
2023/09/04 04:44:15;;;;;;;26.08;6.47;;;;;;;;;;4941161;28;20035;-66
2023/09/04 04:46:41;;;;;;;20.02;5.20;;;;;;;;;;4944581;28;20046;-66
2023/09/04 04:49:07;;;;;;;17.70;5.07;;;;;;;;;;4943194;28;20347;-67
2023/09/04 04:51:33;;;;;;;19.92;5.47;;;;;;;;;;4950980;28;20034;-67
2023/09/04 04:54:00;;;;;;;26.85;6.22;;;;;;;;;;4946917;28;20619;-66
2023/09/04 04:56:26;;;;;;;21.55;6.13;;;;;;;;;;4939961;28;20367;-67
2023/09/04 04:58:52;;;;;;;22.13;6.78;;;;;;;;;;4945304;28;20252;-67
2023/09/04 05:01:18;;;;;;;22.63;5.50;;;;;;;;;;4941012;28;20492;-66
2023/09/04 05:03:44;;;;;;;25.90;6.03;;;;;;;;;;4948832;28;20219;-66
2023/09/04 05:06:10;;;;;;;22.40;6.10;;;;;;;;;;4941297;28;20456;-66
2023/09/04 05:08:36;;;;;;;24.90;5.60;;;;;;;;;;4945028;28;20046;-66
2023/09/04 05:11:06;;;;;;;22.35;6.47;;;;;;;;;;4944820;28;20030;-66
2023/09/04 05:13:33;;;;;;;23.05;5.70;;;;;;;;;;4946757;28;20062;-67
2023/09/04 05:16:03;;;;;;;22.08;6.10;;;;;;;;;;4947846;28;20441;-66
2023/09/04 05:18:30;;;;;;;23.73;6.28;;;;;;;;;;4948046;28;20217;-66
2023/09/04 05:20:56;;;;;;;20.30;5.68;;;;;;;;;;4946793;28;20245;-67
2023/09/04 05:23:22;;;;;;;18.85;5.47;;;;;;;;;;4945051;28;20038;-66
2023/09/04 05:25:52;;;;;;;23.67;6.13;;;;;;;;;;4942755;28;20580;-66
2023/09/04 05:28:18;;;;;;;20.77;5.88;;;;;;;;;;4939732;28;20354;-66
2023/09/04 05:30:44;;;;;;;26.23;7.05;;;;;;;;;;4947877;28;20479;-66
2023/09/04 05:33:10;;;;;;;21.67;5.70;;;;;;;;;;4944328;28;20344;-66
2023/09/04 05:35:36;;;;;;;22.85;6.28;;;;;;;;;;4945712;28;20385;-66
2023/09/04 05:38:03;;;;;;;24.77;6.25;;;;;;;;;;4948743;28;20066;-67
2023/09/04 05:40:29;;;;;;;21.42;5.80;;;;;;;;;;4942693;28;20132;-66
2023/09/04 05:42:57;;;;;;;28.10;7.38;;;;;;;;;;4947673;28;20540;-67
2023/09/04 05:45:23;;;;;;;24.02;6.15;;;;;;;;;;4939582;28;20023;-66
2023/09/04 05:47:49;;;;;;;24.88;6.40;;;;;;;;;;4948095;28;20579;-66
2023/09/04 05:50:16;;;;;;;25.88;6.50;;;;;;;;;;4947110;28;20133;-67
2023/09/04 05:52:42;;;;;;;24.05;6.35;;;;;;;;;;4946429;28;20062;-67
2023/09/04 05:55:08;;;;;;;27.70;6.82;;;;;;;;;;4942211;28;20015;-66
2023/09/04 05:57:35;;;;;;;24.90;7.05;;;;;;;;;;4946592;28;20598;-66
2023/09/04 06:00:01;;;;;;;27.00;7.80;;;;;;;;;;4945172;28;20153;-68
2023/09/04 06:02:27;;;;;;;24.08;6.68;;;;;;;;;;4946403;28;20147;-68
2023/09/04 06:04:54;;;;;;;24.20;6.85;;;;;;;;;;4948138;28;20066;-66
2023/09/04 06:07:20;;;;;;;26.63;6.68;;;;;;;;;;4944361;28;20045;-66
2023/09/04 06:09:46;;;;;;;27.33;6.57;;;;;;;;;;4946352;28;20081;-67
2023/09/04 06:12:12;;;;;;;23.05;6.20;;;;;;;;;;4939728;28;20528;-67
2023/09/04 06:14:39;;;;;;;25.88;6.90;;;;;;;;;;4946571;28;20030;-66
2023/09/04 06:17:05;;;;;;;24.95;6.15;;;;;;;;;;4945952;28;20334;-67
2023/09/04 06:19:32;;;;;;;25.75;6.30;;;;;;;;;;4943898;28;20389;-67
2023/09/04 06:21:58;;;;;;;25.70;6.70;;;;;;;;;;4947867;28;20050;-67
2023/09/04 06:24:24;;;;;;;26.10;6.72;;;;;;;;;;4945314;28;20045;-69
2023/09/04 06:26:51;;;;;;;25.00;6.80;;;;;;;;;;4946785;28;20418;-67
2023/09/04 06:29:18;;;;;;;24.40;6.80;;;;;;;;;;4941180;28;20037;-67
2023/09/04 06:31:44;;;;;;;25.50;7.22;;;;;;;;;;4952155;28;20034;-66
2023/09/04 06:34:10;;;;;;;19.33;6.18;;;;;;;;;;4939561;28;20022;-67
2023/09/04 06:36:37;;;;;;;27.23;6.85;;;;;;;;;;4945441;28;20126;-66
2023/09/04 06:39:04;;;;;;;25.35;6.07;;;;;;;;;;4945539;28;20026;-67
2023/09/04 06:41:31;;;;;;;25.45;7.00;;;;;;;;;;4939814;28;20327;-66
2023/09/04 06:43:58;;;;;;;26.20;6.90;;;;;;;;;;4947092;28;20024;-66
2023/09/04 06:46:24;;;;;;;21.52;6.43;;;;;;;;;;4940762;28;20118;-66
2023/09/04 06:48:50;;;;;;;29.25;7.53;;;;;;;;;;4940588;28;20027;-69
2023/09/04 06:51:16;;;;;;;30.25;7.75;;;;;;;;;;4940639;28;20658;-66
2023/09/04 06:53:42;;;;;;;24.40;7.05;;;;;;;;;;4947086;28;20597;-68
2023/09/04 06:56:09;;;;;;;25.23;6.45;;;;;;;;;;4941710;28;20304;-68
2023/09/04 06:58:35;;;;;;;31.85;8.15;;;;;;;;;;4940976;28;20068;-66
2023/09/04 07:01:04;;;;;;;30.27;7.10;;;;;;;;;;4939878;28;20038;-68
2023/09/04 07:03:31;;;;;;;24.40;5.97;;;;;;;;;;4941953;28;20606;-68
2023/09/04 07:05:57;;;;;;;31.83;7.32;;;;;;;;;;4945638;28;20171;-66
2023/09/04 07:08:24;;;;;;;26.65;6.25;;;;;;;;;;4939887;28;20086;-66
2023/09/04 07:10:50;;;;;;;32.50;6.93;;;;;;;;;;4942581;28;20516;-69
2023/09/04 07:13:16;;;;;;;29.65;7.35;;;;;;;;;;4938513;28;20532;-66
2023/09/04 07:15:43;;;;;;;28.58;7.68;;;;;;;;;;4939787;28;20027;-66
2023/09/04 07:18:09;;;;;;;26.35;7.03;;;;;;;;;;4941566;28;20023;-66
2023/09/04 07:20:35;;;;;;;22.60;5.95;;;;;;;;;;4942659;28;20088;-66
2023/09/04 07:23:01;;;;;;;24.67;6.50;;;;;;;;;;4940493;28;20255;-67
2023/09/04 07:25:27;;;;;;;24.90;7.00;;;;;;;;;;4942694;28;20037;-66
2023/09/04 07:27:54;;;;;;;26.05;7.05;;;;;;;;;;4941549;28;20050;-66
2023/09/04 07:30:20;;;;;;;27.42;6.60;;;;;;;;;;4939483;28;20158;-69
2023/09/04 07:32:46;;;;;;;24.88;6.60;;;;;;;;;;4942763;28;20027;-66
2023/09/04 07:35:12;;;;;;;24.92;6.82;;;;;;;;;;4937931;28;20041;-67
2023/09/04 07:37:38;;;;;;;27.15;7.18;;;;;;;;;;4943328;28;20663;-67
2023/09/04 07:40:05;;;;;;;20.98;6.28;;;;;;;;;;4943830;28;20045;-66
2023/09/04 07:42:31;;;;;;;27.65;6.82;;;;;;;;;;4939330;28;20248;-67
2023/09/04 07:44:57;;;;;;;25.55;6.43;;;;;;;;;;4944448;28;20042;-66
2023/09/04 07:47:24;;;;;;;20.83;5.82;;;;;;;;;;4945329;28;20027;-66
2023/09/04 07:49:53;;;;;;;26.95;6.75;;;;;;;;;;4944225;28;20185;-67
2023/09/04 07:52:21;;;;;;;25.05;7.60;;;;;;;;;;4946087;28;20281;-67
2023/09/04 07:54:48;;;;;;;22.77;6.30;;;;;;;;;;4941115;28;20042;-67
2023/09/04 07:57:15;;;;;;;25.77;6.88;;;;;;;;;;4940776;28;20023;-67
2023/09/04 07:59:41;;;;;;;25.70;6.60;;;;;;;;;;4945646;28;20130;-67
2023/09/04 08:02:07;;;;;;;25.08;6.95;;;;;;;;;;4944545;28;20342;-67
2023/09/04 08:04:34;;;;;;;24.60;6.75;;;;;;;;;;4941636;28;20042;-68
2023/09/04 08:07:00;;;;;;;23.80;7.28;;;;;;;;;;4943139;28;20033;-68
2023/09/04 08:09:26;;;;;;;20.27;5.65;;;;;;;;;;4945422;28;20039;-68
2023/09/04 08:11:52;;;;;;;24.67;6.97;;;;;;;;;;4945912;28;20297;-68
2023/09/04 08:14:18;;;;;;;22.70;6.70;;;;;;;;;;4942150;28;20109;-69
2023/09/04 08:16:45;;;;;;;25.73;8.45;;;;;;;;;;4944204;28;20019;-68
2023/09/04 08:19:11;;;;;;;24.30;8.00;;;;;;;;;;4941818;28;20085;-68
2023/09/04 08:21:37;;;;;;;36.95;12.32;;;;;;;;;;4943963;28;20026;-67
2023/09/04 08:24:03;;;;;;;29.10;9.95;;;;;;;;;;4942854;28;20038;-68
2023/09/04 08:26:29;;;;;;;20.52;7.68;;;;;;;;;;4941206;28;20030;-68
2023/09/04 08:28:55;;;;;;;20.85;5.90;;;;;;;;;;4941662;28;20030;-68
2023/09/04 08:31:22;;;;;;;19.55;5.80;;;;;;;;;;4937003;28;20046;-68
2023/09/04 08:33:48;;;;;;;19.40;6.28;;;;;;;;;;4940496;28;20429;-68
2023/09/04 08:36:14;;;;;;;23.17;6.63;;;;;;;;;;4941210;28;20031;-68
2023/09/04 08:38:41;;;;;;;24.48;6.47;;;;;;;;;;4945703;28;20125;-68
2023/09/04 08:41:08;;;;;;;17.90;5.40;;;;;;;;;;4939943;28;20100;-68
2023/09/04 08:43:36;;;;;;;17.98;5.95;;;;;;;;;;4945047;28;20385;-68
2023/09/04 08:46:05;;;;;;;22.05;7.00;;;;;;;;;;4944387;28;20030;-68
2023/09/04 08:48:32;;;;;;;19.77;6.45;;;;;;;;;;4940246;28;20034;-68
2023/09/04 08:50:59;;;;;;;20.33;6.07;;;;;;;;;;4943312;28;20450;-68
2023/09/04 08:53:26;;;;;;;23.80;5.80;;;;;;;;;;4939976;28;20031;-67
2023/09/04 08:55:53;;;;;;;22.17;5.38;;;;;;;;;;4941843;28;20027;-68
2023/09/04 08:58:20;;;;;;;19.55;5.70;;;;;;;;;;4937245;28;20026;-67
2023/09/04 09:00:47;;;;;;;22.58;6.03;;;;;;;;;;4945503;28;20382;-68
2023/09/04 09:03:13;;;;;;;21.33;5.43;;;;;;;;;;4939916;28;20440;-68
2023/09/04 09:05:40;;;;;;;19.45;4.93;;;;;;;;;;4940713;28;20035;-67
2023/09/04 09:08:07;;;;;;;24.83;5.78;;;;;;;;;;4940404;28;20058;-67
2023/09/04 09:10:33;;;;;;;18.02;5.03;;;;;;;;;;4939070;28;20031;-67
2023/09/04 09:13:00;;;;;;;19.52;5.78;;;;;;;;;;4940589;28;20097;-67
2023/09/04 09:15:26;;;;;;;20.75;5.50;;;;;;;;;;4946640;28;20027;-67
2023/09/04 09:17:57;;;;;;;20.83;5.53;;;;;;;;;;4941801;28;20383;-68
2023/09/04 09:20:31;;;;;;;20.67;5.65;;;;;;;;;;4942753;28;20176;-67
2023/09/04 09:23:00;;;;;;;20.50;5.90;;;;;;;;;;4943392;28;20160;-67
2023/09/04 09:25:29;;;;;;;17.55;5.28;;;;;;;;;;4948282;28;20113;-67
2023/09/04 09:28:00;;;;;;;20.08;5.85;;;;;;;;;;4942732;28;20048;-67
2023/09/04 09:30:29;;;;;;;17.58;5.25;;;;;;;;;;4947579;28;20031;-67
2023/09/04 09:32:57;;;;;;;17.30;5.65;;;;;;;;;;4943707;28;20453;-67
2023/09/04 09:35:23;;;;;;;20.85;5.57;;;;;;;;;;4939393;28;20027;-67
2023/09/04 09:37:49;;;;;;;18.30;5.82;;;;;;;;;;4945834;28;20146;-67
2023/09/04 09:40:16;;;;;;;19.80;4.97;;;;;;;;;;4943442;28;20341;-68
2023/09/04 09:42:42;;;;;;;16.95;4.95;;;;;;;;;;4940240;28;20035;-68
2023/09/04 09:45:08;;;;;;;19.80;5.20;;;;;;;;;;4939405;28;20706;-68
2023/09/04 09:47:35;;;;;;;22.60;6.30;;;;;;;;;;4934804;28;20035;-68
2023/09/04 09:50:04;;;;;;;16.83;5.22;;;;;;;;;;4935758;28;20024;-68
2023/09/04 09:52:30;;;;;;;17.65;4.97;;;;;;;;;;4941660;28;20027;-68
2023/09/04 09:54:57;;;;;;;19.55;5.65;;;;;;;;;;4939681;28;20055;-68
2023/09/04 09:57:25;;;;;;;18.85;5.25;;;;;;;;;;4932427;28;20031;-68
2023/09/04 09:59:51;;;;;;;21.00;5.50;;;;;;;;;;4941915;28;20547;-69
2023/09/04 10:02:22;;;;;;;18.23;6.10;;;;;;;;;;4936561;28;20435;-69
2023/09/04 10:04:48;;;;;;;20.00;5.45;;;;;;;;;;4940112;28;20103;-68
2023/09/04 10:07:16;;;;;;;18.27;5.70;;;;;;;;;;4939008;28;20279;-69
2023/09/04 10:09:46;;;;;;;22.58;5.57;;;;;;;;;;4938316;28;20055;-68
2023/09/04 10:12:16;;;;;;;20.98;5.15;;;;;;;;;;4936329;28;20718;-68
2023/09/04 10:14:44;;;;;;;18.35;5.18;;;;;;;;;;4939851;28;20034;-70
2023/09/04 10:17:21;;;;;;;17.02;5.07;;;;;;;;;;4937203;28;20563;-68
2023/09/04 10:19:48;;;;;;;19.33;5.07;;;;;;;;;;4939890;28;20512;-68
2023/09/04 10:22:24;;;;;;;16.70;5.40;;;;;;;;;;4937332;28;20445;-68
2023/09/04 10:24:54;;;;;;;18.70;5.22;;;;;;;;;;4934736;28;20081;-68
2023/09/04 10:27:22;;;;;;;18.90;5.10;;;;;;;;;;4934731;28;20161;-68
2023/09/04 10:29:54;;;;;;;20.50;5.13;;;;;;;;;;4940930;28;20513;-70
2023/09/04 10:32:21;;;;;;;18.48;5.43;;;;;;;;;;4931617;28;21691;-68
2023/09/04 10:34:47;;;;;;;19.80;5.78;;;;;;;;;;4936171;28;20421;-70
2023/09/04 10:37:13;;;;;;;16.45;5.40;;;;;;;;;;4932212;28;20130;-70
2023/09/04 10:39:40;;;;;;;19.42;5.60;;;;;;;;;;4935188;28;20039;-70
2023/09/04 10:42:07;;;;;;;18.55;5.32;;;;;;;;;;4935407;28;20046;-69
2023/09/04 10:44:46;;;;;;;20.95;5.72;;;;;;;;;;4944057;28;20148;-70
2023/09/04 10:47:13;;;;;;;18.15;5.45;;;;;;;;;;4935122;28;20037;-70
2023/09/04 10:49:39;;;;;;;18.65;5.32;;;;;;;;;;4942057;28;20120;-69
2023/09/04 10:52:06;;;;;;;17.90;5.28;;;;;;;;;;4932044;28;20406;-69
2023/09/04 10:54:32;;;;;;;24.27;5.78;;;;;;;;;;4934539;28;20125;-69
2023/09/04 10:56:59;;;;;;;18.55;5.32;;;;;;;;;;4938230;28;20567;-70
2023/09/04 10:59:26;;;;;;;21.08;5.65;;;;;;;;;;4935752;28;20469;-70
2023/09/04 11:01:52;;;;;;;19.83;5.20;;;;;;;;;;4941209;28;20677;-69
2023/09/04 11:04:37;;;;;;;18.38;5.75;;;;;;;;;;4934180;28;20069;-70
2023/09/04 11:07:21;;;;;;;21.83;5.25;;;;;;;;;;4933786;28;20067;-69
2023/09/04 11:10:06;;;;;;;18.23;5.30;;;;;;;;;;4941443;28;20477;-69
2023/09/04 11:12:35;;;;;;;17.52;4.65;;;;;;;;;;4943764;28;20722;-69
2023/09/04 11:15:02;;;;;;;14.55;4.70;;;;;;;;;;4944943;28;20042;-70
2023/09/04 11:17:30;;;;;;;17.20;5.03;;;;;;;;;;4945092;28;20014;-70
2023/09/04 11:19:57;;;;;;;24.45;5.68;;;;;;;;;;4943775;28;20452;-68
2023/09/04 11:22:25;;;;;;;20.33;5.50;;;;;;;;;;4941698;28;20038;-67
2023/09/04 11:24:54;;;;;;;17.27;5.43;;;;;;;;;;4944571;28;20039;-66
2023/09/04 11:27:20;;;;;;;20.98;5.85;;;;;;;;;;4943486;28;20461;-69
2023/09/04 11:29:47;;;;;;;19.58;5.45;;;;;;;;;;4946627;28;20042;-67
2023/09/04 11:32:14;;;;;;;17.65;5.47;;;;;;;;;;4940754;28;20023;-68
2023/09/04 11:34:42;;;;;;;16.52;5.15;;;;;;;;;;4947924;28;20034;-67
2023/09/04 11:37:09;;;;;;;19.73;5.53;;;;;;;;;;4940547;28;20114;-68
2023/09/04 11:39:35;;;;;;;23.08;5.72;;;;;;;;;;4948309;28;20038;-67
2023/09/04 11:42:01;;;;;;;16.35;5.35;;;;;;;;;;4942362;28;20476;-69
2023/09/04 11:44:30;;;;;;;18.98;5.90;;;;;;;;;;4946865;28;20027;-69
2023/09/04 11:46:57;;;;;;;15.70;5.18;;;;;;;;;;4941758;28;20031;-68
2023/09/04 11:49:23;;;;;;;14.60;5.18;;;;;;;;;;4945314;28;20045;-67
2023/09/04 11:51:50;;;;;;;21.02;5.60;;;;;;;;;;4949482;28;20129;-67
2023/09/04 11:54:31;;;;;;;19.55;5.72;;;;;;;;;;4943816;28;20579;-67
2023/09/04 11:57:01;;;;;;;16.73;5.60;;;;;;;;;;4948830;28;20023;-67
2023/09/04 11:59:27;;;;;;;14.32;4.75;;;;;;;;;;4950737;28;20148;-68
2023/09/04 12:01:53;;;;;;;16.63;5.07;;;;;;;;;;4947463;28;20069;-67
2023/09/04 12:04:19;;;;;;;13.52;4.88;;;;;;;;;;4944297;28;20357;-67
2023/09/04 12:06:46;;;;;;;15.25;5.00;;;;;;;;;;4948953;28;20096;-67
2023/09/04 12:09:15;;;;;;;18.88;5.63;;;;;;;;;;4942816;28;20537;-68
2023/09/04 12:11:42;;;;;;;18.00;5.40;;;;;;;;;;4951139;28;20035;-67
2023/09/04 12:14:09;;;;;;;19.67;5.50;;;;;;;;;;4951232;28;20031;-67
2023/09/04 12:16:35;;;;;;;17.98;5.80;;;;;;;;;;4950295;28;20420;-67
2023/09/04 12:19:03;;;;;;;17.40;5.18;;;;;;;;;;4943614;28;20104;-67
2023/09/04 12:21:29;;;;;;;19.33;5.45;;;;;;;;;;4946442;28;20606;-67
2023/09/04 12:23:55;;;;;;;17.38;5.20;;;;;;;;;;4948619;28;20054;-70
2023/09/04 12:26:24;;;;;;;19.67;5.72;;;;;;;;;;4948740;28;21155;-67
2023/09/04 12:28:52;;;;;;;22.02;5.75;;;;;;;;;;4949626;28;20088;-67
2023/09/04 12:31:24;;;;;;;15.93;4.72;;;;;;;;;;4947037;28;20468;-67
2023/09/04 12:33:52;;;;;;;21.75;5.80;;;;;;;;;;4947287;28;20051;-67
2023/09/04 12:36:21;;;;;;;18.42;5.72;;;;;;;;;;4942369;28;20117;-67
2023/09/04 12:38:48;;;;;;;17.30;4.93;;;;;;;;;;4951174;28;20100;-67
2023/09/04 12:41:14;;;;;;;17.20;5.35;;;;;;;;;;4944713;28;20047;-67
2023/09/04 12:43:40;;;;;;;18.52;5.22;;;;;;;;;;4950024;28;20557;-68
2023/09/04 12:46:06;;;;;;;17.30;4.32;;;;;;;;;;4946045;28;20089;-68
2023/09/04 12:48:35;;;;;;;20.20;5.70;;;;;;;;;;4943395;28;20122;-70
2023/09/04 12:51:05;;;;;;;15.43;5.22;;;;;;;;;;4948925;28;20030;-70
2023/09/04 12:53:34;;;;;;;16.42;4.70;;;;;;;;;;4946226;28;20038;-69
2023/09/04 12:56:02;;;;;;;18.50;5.30;;;;;;;;;;4949720;28;20405;-69
2023/09/04 12:58:28;;;;;;;18.23;5.43;;;;;;;;;;4950154;28;20627;-68
2023/09/04 13:00:54;;;;;;;22.02;6.05;;;;;;;;;;4949927;28;20365;-69
2023/09/04 13:03:21;;;;;;;19.70;5.70;;;;;;;;;;4943289;28;20061;-69
2023/09/04 13:05:47;;;;;;;16.70;5.20;;;;;;;;;;4950328;28;20047;-69
2023/09/04 13:08:13;;;;;;;15.63;5.35;;;;;;;;;;4946146;28;20349;-69
2023/09/04 13:10:42;;;;;;;17.58;5.50;;;;;;;;;;4947238;28;20037;-69
2023/09/04 13:13:08;;;;;;;19.08;5.63;;;;;;;;;;4948649;28;20054;-69
2023/09/04 13:15:34;;;;;;;22.08;6.18;;;;;;;;;;4952507;28;20125;-69
2023/09/04 13:18:00;;;;;;;16.98;5.97;;;;;;;;;;4948995;28;20186;-69
2023/09/04 13:20:27;;;;;;;18.45;5.38;;;;;;;;;;4950362;28;20031;-69
2023/09/04 13:22:53;;;;;;;19.35;5.50;;;;;;;;;;4948044;28;20098;-69
2023/09/04 13:25:19;;;;;;;19.42;5.70;;;;;;;;;;4948740;28;20138;-69
2023/09/04 13:27:45;;;;;;;20.15;5.60;;;;;;;;;;4947776;28;20039;-69
2023/09/04 13:30:12;;;;;;;17.63;5.03;;;;;;;;;;4947845;28;20042;-69
2023/09/04 13:32:38;;;;;;;17.27;5.32;;;;;;;;;;4948764;28;20042;-69
2023/09/04 13:35:07;;;;;;;17.95;5.70;;;;;;;;;;4941529;28;20058;-69
2023/09/04 13:37:33;;;;;;;18.05;5.35;;;;;;;;;;4943600;28;20500;-69
2023/09/04 13:39:59;;;;;;;21.98;6.45;;;;;;;;;;4950199;28;20104;-69
2023/09/04 13:42:25;;;;;;;16.17;5.28;;;;;;;;;;4941652;28;20093;-69
2023/09/04 13:44:51;;;;;;;20.05;6.05;;;;;;;;;;4948475;28;20039;-69
2023/09/04 13:47:24;;;;;;;16.77;5.60;;;;;;;;;;4943755;28;20130;-69
2023/09/04 13:49:51;;;;;;;19.83;6.00;;;;;;;;;;4947601;28;20086;-69
2023/09/04 13:52:17;;;;;;;20.38;6.18;;;;;;;;;;4943016;28;20046;-69
2023/09/04 13:54:43;;;;;;;15.30;5.13;;;;;;;;;;4943071;28;20011;-69
2023/09/04 13:57:09;;;;;;;21.10;5.95;;;;;;;;;;4945405;28;20220;-69
2023/09/04 13:59:35;;;;;;;19.35;5.47;;;;;;;;;;4948643;28;20022;-69
2023/09/04 14:02:02;;;;;;;15.95;5.10;;;;;;;;;;4946644;28;20038;-68
2023/09/04 14:04:28;;;;;;;17.95;5.70;;;;;;;;;;4948205;28;20030;-69
2023/09/04 14:06:54;;;;;;;19.27;5.25;;;;;;;;;;4944293;28;20037;-68
2023/09/04 14:09:20;;;;;;;22.58;7.30;;;;;;;;;;4938795;28;20210;-68
2023/09/04 14:11:47;;;;;;;18.90;6.30;;;;;;;;;;4947758;28;20068;-68
2023/09/04 14:14:15;;;;;;;20.83;6.18;;;;;;;;;;4942454;28;20142;-69
2023/09/04 14:16:41;;;;;;;18.45;5.63;;;;;;;;;;4947650;28;20030;-68
2023/09/04 14:19:09;;;;;;;17.67;5.82;;;;;;;;;;4946792;28;20489;-68
2023/09/04 14:21:36;;;;;;;18.65;5.65;;;;;;;;;;4946520;28;20125;-69
2023/09/04 14:24:02;;;;;;;17.98;6.25;;;;;;;;;;4941731;28;20030;-68
2023/09/04 14:26:28;;;;;;;17.52;5.32;;;;;;;;;;4942026;28;20823;-68
2023/09/04 14:28:54;;;;;;;15.95;5.53;;;;;;;;;;4948605;28;20023;-67
2023/09/04 14:31:22;;;;;;;18.90;5.80;;;;;;;;;;4948226;28;20038;-70